Monticello, AR (71657)

12:37 PM CDT on May 22, 2015 (GMT -0500)
RAWS | | Change Station
CLOSE
Current Station
Personal Weather Station
Location: Monticello, AR
Elevation: 183 ft
Nearby Weather Stations

Elev 183 ft 33.59 °N, 91.81 °W | Updated 37 minutes ago

Clear
Clear
67 °F
Feels Like 67 °F
N
8
Wind Variable Wind from ESE
Gusts 17.0 mph

Today
High -- | Low -- °F
--% Chance of Precip.
Yesterday
High -- | Low -- °F
Precip. -- in
6:02 AM 8:05 PM
Waxing Crescent, 22% visible
Pressure 30.26 in
Visibility 10.0 miles
Clouds Clear
Dew Point 49 °F
Humidity 53%
Rainfall in
Snow Depth Not available.
UV 11 out of 12
Pollen 7.50 out of 12
Air Quality Not available.
Flu Activity No Activity
METAR KLLQ 221653Z AUTO 09006G14KT 10SM CLR 19/09 A3026 RMK AO2 SLP245 T01890089

More Conditions Fewer Conditions

Pressure 30.26 in
Visibility 10.0 miles
Clouds Clear
Dew Point 49 °F
Humidity 53%
Rainfall in
Snow Depth Not available.
UV 11 out of 12
Pollen 7.50 out of 12
Air Quality Not available.
Flu Activity No Activity
METAR KLLQ 221653Z AUTO 09006G14KT 10SM CLR 19/09 A3026 RMK AO2 SLP245 T01890089

More Conditions Fewer Conditions

10-Day Weather Forecast

Almanac

Astronomy

May. 22, 2015 Rise Set
Actual Time
Civil Twilight
Nautical Twilight
Astronomical Twilight
Moon
Length of Visible Light
Length of Day
Tomorrow will be .
, % of the Moon is Illuminated

Today's Extremes

State Highs State Lows

Community

WunderPhotos

Upload Photos

1,823,268 photos uploaded!

WunderBlogs® & News

Nearby

Air Quality

  Air Quality AQ Index Pollutant
Not available.

Snow Depth

Station Depth Elevation

Earthquake Activity

City Distance Mag. Time & Date
Minimum magnitude displayed is 2.5.

Coastal Water Temperatures

Place Temperature

Stations

Nearby Weather Stations

Station Location Temp. Windchill Dew Point Humidity Wind Precip. Elev Updated Type